Broadview Acres, New Mexico
Current Conditions -  °F | °C
As of 3:35 PM on Monday 22 Dec 2014 (Local Time) from KGNT Reporting Station
Overcast Overcast  
Wind Chill: 51°   Ceiling: 6000
Heat Index: 51°   Visibility: 10mi
Dew Point: 29°   Wind: 28mph
Humidity: 42%   Direction: 300°WNW
Pressure: 29.8"   Gusts: 40mph
Location:  35.2644°N, 107.733°W
Report Text: KGNT 222235Z AUTO 30024G35KT 10SM SCT047 BKN060 OVC120 11/M02 A2980 RMK AO2 T01081018
Loading
Personal Weather Stations






























Interactive Weather Map New forecast layout! Learn more

10-Day Weather Forecast

Advertisements
Track Severe Weather on mobile